Time;durP1;ratioP1;P1;durP2;ratioP2;P2;SDS_P1;SDS_P2;PMS_P1;PMS_P2;Temp;Humidity;BMP_temperature;BMP_pressure;BME280_temperature;BME280_humidity;BME280_pressure;Samples;Min_cycle;Max_cycle;Signal;HPM_P1;HPM_P2
2022/11/19 00:01:23;;;;;;;1.23;0.70;;;22.70;54.80;;;;;;4124485;28;20041;-48
2022/11/19 00:03:46;;;;;;;3.13;0.80;;;22.70;54.90;;;;;;4113301;28;20507;-48
2022/11/19 00:06:14;;;;;;;2.47;0.85;;;22.70;54.90;;;;;;4127154;28;20038;-51
2022/11/19 00:08:37;;;;;;;7.93;0.93;;;22.70;55.10;;;;;;4124607;28;20038;-60
2022/11/19 00:11:14;;;;;;;9.68;1.05;;;22.80;55.90;;;;;;4122940;28;20099;-58
2022/11/19 00:13:38;;;;;;;1.70;0.70;;;22.90;56.10;;;;;;4131608;28;20053;-58
2022/11/19 00:16:09;;;;;;;3.88;0.80;;;22.90;56.10;;;;;;4129248;28;20048;-59
2022/11/19 00:18:32;;;;;;;2.80;0.80;;;23.00;56.10;;;;;;4129324;28;20119;-58
2022/11/19 00:20:55;;;;;;;2.47;0.68;;;23.00;56.10;;;;;;4129328;28;20034;-59
2022/11/19 00:23:17;;;;;;;1.20;0.60;;;23.00;56.20;;;;;;4131117;28;20101;-59
2022/11/19 00:25:40;;;;;;;3.40;0.80;;;23.10;56.10;;;;;;4127469;28;20061;-59
2022/11/19 00:28:02;;;;;;;4.38;0.70;;;23.20;56.10;;;;;;4128885;28;20104;-56
2022/11/19 00:30:25;;;;;;;0.98;0.50;;;23.20;56.00;;;;;;4130023;28;20040;-60
2022/11/19 00:32:48;;;;;;;1.73;0.82;;;23.20;56.00;;;;;;4131918;28;20046;-54
2022/11/19 00:35:11;;;;;;;1.52;0.60;;;23.30;56.00;;;;;;4126447;28;20132;-53
2022/11/19 00:37:33;;;;;;;1.63;0.80;;;23.30;56.00;;;;;;4131377;28;20511;-50
2022/11/19 00:39:56;;;;;;;0.30;0.30;;;23.30;56.00;;;;;;4130005;28;20084;-57
2022/11/19 00:42:19;;;;;;;0.82;0.40;;;23.40;55.90;;;;;;4132341;28;20089;-57
2022/11/19 00:44:42;;;;;;;2.35;0.60;;;23.40;55.90;;;;;;4129006;28;20471;-55
2022/11/19 00:47:05;;;;;;;1.63;0.40;;;23.40;55.90;;;;;;4126427;28;20085;-56
2022/11/19 00:49:27;;;;;;;3.35;0.57;;;23.50;55.80;;;;;;4131522;28;20046;-53
2022/11/19 00:51:50;;;;;;;3.38;1.10;;;23.50;55.80;;;;;;4128138;28;20044;-57
2022/11/19 00:54:13;;;;;;;3.13;0.60;;;23.60;55.80;;;;;;4129158;28;20523;-55
2022/11/19 00:56:35;;;;;;;1.80;0.70;;;23.60;55.70;;;;;;4127140;28;20084;-55
2022/11/19 00:58:58;;;;;;;0.52;0.52;;;23.70;55.80;;;;;;4126757;28;20038;-52
2022/11/19 01:01:23;;;;;;;4.22;1.67;;;23.60;55.50;;;;;;4132048;28;20048;-56
2022/11/19 01:03:45;;;;;;;8.18;1.50;;;23.70;55.00;;;;;;4126634;28;20056;-57
2022/11/19 01:06:09;;;;;;;7.05;1.67;;;23.70;55.20;;;;;;4127212;28;20461;-57
2022/11/19 01:08:32;;;;;;;12.43;1.90;;;23.80;55.80;;;;;;4132592;28;20037;-60
2022/11/19 01:10:54;;;;;;;6.40;1.95;;;23.80;56.20;;;;;;4129368;28;20507;-53
2022/11/19 01:13:35;;;;;;;9.70;1.75;;;23.90;56.90;;;;;;4125131;28;20054;-58
2022/11/19 01:15:58;;;;;;;11.63;2.15;;;23.90;58.00;;;;;;4127027;28;20054;-57
2022/11/19 01:18:21;;;;;;;4.70;1.45;;;24.00;59.00;;;;;;4130403;28;20037;-51
2022/11/19 01:20:44;;;;;;;9.55;2.08;;;24.10;59.40;;;;;;4130293;28;20050;-52
2022/11/19 01:23:06;;;;;;;5.82;1.42;;;24.10;59.40;;;;;;4114794;28;20426;-52
2022/11/19 01:25:29;;;;;;;7.28;1.60;;;24.20;59.30;;;;;;4127033;28;20058;-54
2022/11/19 01:27:51;;;;;;;5.05;1.67;;;24.20;59.30;;;;;;4130931;28;20042;-58
2022/11/19 01:30:14;;;;;;;4.80;1.60;;;24.20;59.30;;;;;;4132573;28;20526;-54
2022/11/19 01:32:37;;;;;;;3.55;1.30;;;24.20;59.20;;;;;;4132979;28;20082;-53
2022/11/19 01:34:59;;;;;;;2.67;1.02;;;24.20;59.20;;;;;;4128813;28;20053;-54
2022/11/19 01:37:22;;;;;;;4.47;1.40;;;24.30;59.50;;;;;;4129023;28;20042;-57
2022/11/19 01:39:44;;;;;;;5.07;1.48;;;24.30;59.90;;;;;;4135941;28;20062;-61
2022/11/19 01:42:48;;;;;;;5.95;1.20;;;24.40;60.20;;;;;;4126995;28;20037;-57
2022/11/19 01:45:06;;;;;;;11.00;2.22;;;24.40;60.00;;;;;;4130558;28;20227;-51
2022/11/19 01:47:28;;;;;;;13.05;1.80;;;24.50;59.70;;;;;;4129184;28;20045;-55
2022/11/19 01:49:51;;;;;;;5.85;2.08;;;24.50;58.70;;;;;;4130281;28;20045;-55
2022/11/19 01:52:14;;;;;;;6.60;2.47;;;24.40;56.40;;;;;;4130088;28;20136;-55
2022/11/19 01:54:42;;;;;;;4.20;2.25;;;24.40;55.20;;;;;;4128970;28;20054;-57
2022/11/19 01:57:09;;;;;;;5.15;2.15;;;24.30;54.80;;;;;;4113196;28;20479;-56
2022/11/19 01:59:32;;;;;;;3.90;2.05;;;24.30;54.60;;;;;;4125211;28;20049;-54
2022/11/19 02:01:56;;;;;;;6.30;2.00;;;24.30;54.60;;;;;;4130943;28;20088;-55
2022/11/19 02:04:20;;;;;;;4.85;1.85;;;24.20;54.60;;;;;;4127109;28;20415;-56
2022/11/19 02:06:44;;;;;;;4.50;1.77;;;24.20;54.50;;;;;;4125187;28;20467;-56
2022/11/19 02:09:06;;;;;;;;;;;24.20;54.50;;;;;;4132229;28;20046;-52
2022/11/19 02:11:45;;;;;;;4.00;2.03;;;24.10;54.40;;;;;;4129889;28;19921;-55
2022/11/19 02:14:20;;;;;;;4.38;1.98;;;24.10;54.40;;;;;;4121780;28;20124;-54
2022/11/19 02:17:13;;;;;;;2.60;1.40;;;24.10;54.40;;;;;;4116902;28;20064;-56
2022/11/19 02:19:59;;;;;;;3.30;1.40;;;24.10;54.30;;;;;;4120006;28;20695;-56
2022/11/19 02:22:45;;;;;;;2.60;1.33;;;24.10;54.20;;;;;;4122286;28;20317;-53
2022/11/19 02:25:49;;;;;;;3.28;1.55;;;24.10;54.10;;;;;;4119512;28;20521;-57
2022/11/19 02:28:33;;;;;;;5.07;1.60;;;24.10;54.20;;;;;;4101614;28;20042;-57
2022/11/19 02:31:11;;;;;;;3.03;1.38;;;24.10;54.20;;;;;;4124043;28;20120;-57
2022/11/19 02:33:43;;;;;;;3.47;1.40;;;24.10;54.20;;;;;;4124504;28;20046;-58
2022/11/19 02:36:23;;;;;;;1.98;1.08;;;24.10;54.10;;;;;;4123835;28;20052;-58
2022/11/19 02:39:11;;;;;;;3.33;1.30;;;24.10;54.20;;;;;;4123532;28;20309;-57
2022/11/19 02:41:44;;;;;;;2.67;1.20;;;24.10;54.30;;;;;;4123243;28;20141;-57
2022/11/19 02:47:13;;;;;;;2.35;1.15;;;24.10;54.40;;;;;;4122082;28;20441;-53
2022/11/19 02:49:43;;;;;;;2.00;1.27;;;24.10;54.50;;;;;;4123136;28;20834;-56
2022/11/19 02:52:07;;;;;;;3.08;1.17;;;24.10;54.40;;;;;;4126355;28;20560;-56
2022/11/19 02:54:29;;;;;;;2.80;1.48;;;24.10;54.30;;;;;;4123991;28;20050;-54
2022/11/19 02:56:57;;;;;;;2.03;1.02;;;24.20;54.30;;;;;;4108163;28;20034;-58
2022/11/19 03:04:59;;;;;;;2.20;1.00;;;24.20;54.30;;;;;;4119883;28;20113;-57
2022/11/19 03:07:23;;;;;;;1.63;0.97;;;24.20;54.30;;;;;;4122420;28;20065;-57
2022/11/19 03:09:57;;;;;;;2.92;0.90;;;24.20;54.20;;;;;;4111123;28;20311;-56
2022/11/19 03:12:49;;;;;;;2.95;1.30;;;24.30;54.30;;;;;;4122037;28;20130;-57
2022/11/19 03:18:46;;;;;;;1.67;0.80;;;24.30;54.30;;;;;;4120854;28;20199;-55
2022/11/19 03:21:38;;;;;;;2.90;0.82;;;24.30;54.30;;;;;;4127275;28;20034;-55
2022/11/19 03:24:08;;;;;;;2.30;0.90;;;24.40;54.30;;;;;;4127204;28;20104;-55
2022/11/19 03:26:53;;;;;;;2.15;0.90;;;24.40;54.20;;;;;;4130657;28;20092;-57
2022/11/19 03:29:17;;;;;;;1.50;0.75;;;24.40;54.20;;;;;;4127282;28;20064;-56
2022/11/19 03:31:47;;;;;;;2.35;1.00;;;24.40;54.30;;;;;;4122977;28;20084;-56
2022/11/19 03:34:15;;;;;;;1.95;0.82;;;24.40;54.20;;;;;;4128952;28;20085;-55
2022/11/19 03:36:40;;;;;;;1.27;0.70;;;24.40;54.20;;;;;;4128744;28;20635;-56
2022/11/19 03:39:06;;;;;;;1.52;1.05;;;24.40;54.20;;;;;;4133602;28;20128;-54
2022/11/19 03:41:30;;;;;;;2.63;0.88;;;24.50;54.30;;;;;;4132379;28;20072;-52
2022/11/19 03:43:57;;;;;;;2.25;0.80;;;24.50;54.30;;;;;;4131624;28;20041;-52
2022/11/19 03:46:21;;;;;;;1.73;0.80;;;24.50;54.20;;;;;;4128775;28;20049;-52
2022/11/19 03:48:50;;;;;;;1.60;0.50;;;24.60;54.30;;;;;;4128257;28;20443;-56
2022/11/19 03:51:25;;;;;;;2.25;1.00;;;24.60;54.30;;;;;;4133493;28;20046;-57
2022/11/19 03:53:48;;;;;;;1.75;0.77;;;24.60;54.20;;;;;;4134099;28;20118;-56
2022/11/19 03:56:15;;;;;;;2.00;0.77;;;24.60;54.10;;;;;;4126922;28;20056;-56
2022/11/19 03:58:40;;;;;;;2.38;0.68;;;24.70;54.20;;;;;;4126626;28;20042;-56
2022/11/19 04:01:03;;;;;;;1.10;0.57;;;24.70;54.70;;;;;;4127425;28;20277;-55
2022/11/19 04:03:25;;;;;;;1.63;0.60;;;24.80;54.00;;;;;;4127068;28;20046;-57
2022/11/19 04:05:48;;;;;;;1.95;0.80;;;24.80;53.90;;;;;;4126814;28;20448;-56
2022/11/19 04:08:10;;;;;;;1.25;0.75;;;24.80;53.90;;;;;;4126292;28;20515;-55
2022/11/19 04:10:33;;;;;;;1.10;0.70;;;24.90;53.90;;;;;;4125627;28;20523;-57
2022/11/19 04:12:55;;;;;;;2.25;0.80;;;25.00;53.90;;;;;;4120976;28;20117;-55
2022/11/19 04:15:18;;;;;;;1.15;0.70;;;25.00;53.80;;;;;;4124785;28;20045;-56
2022/11/19 04:17:41;;;;;;;1.77;0.70;;;25.10;53.80;;;;;;4125282;28;20073;-54
2022/11/19 04:20:05;;;;;;;1.15;0.70;;;25.10;53.80;;;;;;4123544;28;20064;-56
2022/11/19 04:22:26;;;;;;;;;;;25.20;53.70;;;;;;4126141;28;20551;-56
2022/11/19 04:24:49;;;;;;;1.55;0.57;;;25.20;53.70;;;;;;4109143;28;19928;-55
2022/11/19 04:27:11;;;;;;;0.98;0.50;;;25.30;53.60;;;;;;4127313;28;20064;-54
2022/11/19 04:29:34;;;;;;;1.48;0.60;;;25.40;53.60;;;;;;4122697;28;20034;-53
2022/11/19 04:31:56;;;;;;;2.05;1.10;;;25.40;53.50;;;;;;4120960;28;20985;-55
2022/11/19 04:34:19;;;;;;;1.50;0.80;;;25.40;53.40;;;;;;4127373;28;20072;-57
2022/11/19 04:36:42;;;;;;;1.23;0.60;;;25.50;53.30;;;;;;4126744;28;20407;-56
2022/11/19 04:39:04;;;;;;;1.52;0.82;;;25.60;53.30;;;;;;4129499;28;20046;-56
2022/11/19 04:41:27;;;;;;;1.60;0.80;;;25.60;53.30;;;;;;4123661;28;20034;-57
2022/11/19 04:43:49;;;;;;;1.48;0.63;;;25.60;53.20;;;;;;4127602;28;20045;-56
2022/11/19 04:46:12;;;;;;;1.42;0.75;;;25.70;53.20;;;;;;4120284;28;20041;-53
2022/11/19 04:48:34;;;;;;;3.00;0.93;;;25.70;53.20;;;;;;4124018;28;20042;-56
2022/11/19 04:50:57;;;;;;;0.95;0.63;;;25.70;53.10;;;;;;4110731;28;20087;-55
2022/11/19 04:53:20;;;;;;;1.77;0.70;;;25.80;53.00;;;;;;4120160;28;20061;-55
2022/11/19 04:55:42;;;;;;;1.73;0.70;;;25.80;53.00;;;;;;4122946;28;20451;-52
2022/11/19 04:58:05;;;;;;;2.40;0.80;;;25.90;53.00;;;;;;4120381;28;20049;-56
2022/11/19 05:00:27;;;;;;;3.03;1.17;;;25.90;52.90;;;;;;4128250;28;20041;-54
2022/11/19 05:02:50;;;;;;;2.55;0.90;;;26.00;52.90;;;;;;4125139;28;20099;-55
2022/11/19 05:05:12;;;;;;;2.78;1.10;;;26.00;52.80;;;;;;4125254;28;20141;-56
2022/11/19 05:07:35;;;;;;;1.83;0.73;;;26.10;52.80;;;;;;4125666;28;20045;-52
2022/11/19 05:09:57;;;;;;;1.02;0.65;;;26.10;52.70;;;;;;4123464;28;20116;-56
2022/11/19 05:12:20;;;;;;;1.98;0.75;;;26.20;52.70;;;;;;4125205;28;20041;-54
2022/11/19 05:14:43;;;;;;;1.52;0.52;;;26.20;52.70;;;;;;4126675;28;20046;-56
2022/11/19 05:17:06;;;;;;;1.58;0.90;;;26.20;52.50;;;;;;4127481;28;20053;-56
2022/11/19 05:19:28;;;;;;;2.15;0.75;;;26.30;52.60;;;;;;4119565;28;20053;-51
2022/11/19 05:21:51;;;;;;;1.40;0.73;;;26.40;52.50;;;;;;4123854;28;20069;-52
2022/11/19 05:24:13;;;;;;;1.77;0.98;;;26.40;52.40;;;;;;4122830;28;20118;-55
2022/11/19 05:26:36;;;;;;;2.58;1.08;;;26.50;52.40;;;;;;4129611;28;20176;-57
2022/11/19 05:28:58;;;;;;;2.58;0.80;;;26.50;52.30;;;;;;4116934;28;20404;-51
2022/11/19 05:31:21;;;;;;;2.00;0.88;;;26.60;52.30;;;;;;4132498;28;20064;-56
2022/11/19 05:33:44;;;;;;;1.95;0.90;;;26.60;52.10;;;;;;4128483;28;20431;-52
2022/11/19 05:36:06;;;;;;;2.03;0.77;;;26.70;52.10;;;;;;4126272;28;20412;-57
2022/11/19 05:38:29;;;;;;;1.50;1.03;;;26.80;52.00;;;;;;4129267;28;20069;-55
2022/11/19 05:40:51;;;;;;;2.17;0.80;;;26.80;51.90;;;;;;4126983;28;20764;-55
2022/11/19 05:43:14;;;;;;;1.80;0.70;;;26.90;51.90;;;;;;4130251;28;20072;-57
2022/11/19 05:45:37;;;;;;;2.65;1.00;;;26.90;51.80;;;;;;4117070;28;20432;-57
2022/11/19 05:48:00;;;;;;;2.40;1.17;;;27.00;51.90;;;;;;4131853;28;20041;-56
2022/11/19 05:50:22;;;;;;;1.63;0.90;;;27.10;51.70;;;;;;4131841;28;20046;-55
2022/11/19 05:52:45;;;;;;;2.28;0.75;;;27.10;51.50;;;;;;4129793;28;20042;-55
2022/11/19 05:55:08;;;;;;;0.73;0.50;;;27.20;51.50;;;;;;4132962;28;20514;-56
2022/11/19 05:57:30;;;;;;;3.13;0.82;;;27.20;51.40;;;;;;4114860;28;20177;-54
2022/11/19 05:59:53;;;;;;;2.53;0.80;;;27.20;51.30;;;;;;4132122;28;20460;-57
2022/11/19 06:02:15;;;;;;;1.38;0.77;;;27.30;51.30;;;;;;4131454;28;20048;-56
2022/11/19 06:04:38;;;;;;;2.33;0.82;;;27.40;51.30;;;;;;4132047;28;20034;-55
2022/11/19 06:07:00;;;;;;;2.53;1.02;;;27.40;51.10;;;;;;4128867;28;20503;-52
2022/11/19 06:09:23;;;;;;;2.80;1.20;;;27.50;51.20;;;;;;4131648;28;20156;-54
2022/11/19 06:11:51;;;;;;;1.25;0.77;;;27.60;51.10;;;;;;4132263;28;20547;-54
2022/11/19 06:14:15;;;;;;;1.38;0.70;;;27.60;51.00;;;;;;4126924;28;20057;-56
2022/11/19 06:16:38;;;;;;;3.17;1.17;;;27.60;50.80;;;;;;4131310;28;20354;-57
2022/11/19 06:19:00;;;;;;;2.53;1.10;;;27.70;50.90;;;;;;4130796;28;20112;-56
2022/11/19 06:21:26;;;;;;;2.65;1.00;;;27.70;50.80;;;;;;4131153;28;20482;-53
2022/11/19 06:23:48;;;;;;;1.92;0.90;;;27.80;50.80;;;;;;4128166;28;20100;-55
2022/11/19 06:26:11;;;;;;;3.03;1.02;;;27.80;50.80;;;;;;4131058;28;20048;-57
2022/11/19 06:28:34;;;;;;;2.35;0.93;;;27.80;50.70;;;;;;4131399;28;20038;-57
2022/11/19 06:30:56;;;;;;;2.03;0.93;;;27.90;50.80;;;;;;4128905;28;20033;-56
2022/11/19 06:33:19;;;;;;;1.60;0.80;;;27.90;50.70;;;;;;4130835;28;20856;-55
2022/11/19 06:35:41;;;;;;;2.00;0.98;;;27.90;50.70;;;;;;4127097;28;20105;-54
2022/11/19 06:38:04;;;;;;;1.65;0.80;;;27.90;50.70;;;;;;4131683;28;20578;-55
2022/11/19 06:40:26;;;;;;;1.45;0.60;;;27.90;50.70;;;;;;4129514;28;20508;-51
2022/11/19 06:42:49;;;;;;;1.95;1.00;;;27.90;50.70;;;;;;4116618;28;20041;-53
2022/11/19 06:45:14;;;;;;;3.42;1.00;;;27.90;50.70;;;;;;4116885;28;20030;-56
2022/11/19 06:47:38;;;;;;;1.65;0.77;;;27.90;50.70;;;;;;4110673;28;20042;-57
2022/11/19 06:50:01;;;;;;;1.92;0.63;;;27.90;50.80;;;;;;4119461;28;20030;-56
2022/11/19 06:52:23;;;;;;;2.10;0.93;;;27.90;50.80;;;;;;4125454;28;20491;-56
2022/11/19 06:54:46;;;;;;;2.47;0.80;;;27.80;50.90;;;;;;4118572;28;20356;-54
2022/11/19 06:57:08;;;;;;;5.10;1.15;;;27.80;50.90;;;;;;4116981;28;20042;-55
2022/11/19 06:59:31;;;;;;;2.38;0.70;;;27.80;51.10;;;;;;4124624;28;20575;-54
2022/11/19 07:01:53;;;;;;;2.50;0.88;;;27.80;51.10;;;;;;4125520;28;20175;-56
2022/11/19 07:04:16;;;;;;;4.03;1.00;;;27.70;51.10;;;;;;4118952;28;20344;-55
2022/11/19 07:06:39;;;;;;;2.33;1.07;;;27.70;51.20;;;;;;4123100;28;20568;-56
2022/11/19 07:09:01;;;;;;;2.97;0.88;;;27.70;51.30;;;;;;4119468;28;20100;-53
2022/11/19 07:11:27;;;;;;;2.00;0.80;;;27.60;51.20;;;;;;4120252;28;20041;-56
2022/11/19 07:13:56;;;;;;;1.40;0.73;;;27.60;51.30;;;;;;4121229;28;20390;-50
2022/11/19 07:16:19;;;;;;;2.58;1.00;;;27.60;51.40;;;;;;4112298;28;20038;-55
2022/11/19 07:18:41;;;;;;;2.22;0.68;;;27.50;51.40;;;;;;4128011;28;20515;-56
2022/11/19 07:21:04;;;;;;;4.40;1.08;;;27.50;51.50;;;;;;4107482;28;20054;-55
2022/11/19 07:23:26;;;;;;;2.22;0.75;;;27.50;51.60;;;;;;4129963;28;20194;-54
2022/11/19 07:25:49;;;;;;;2.70;1.15;;;27.40;51.70;;;;;;4129748;28;20069;-53
2022/11/19 07:28:12;;;;;;;2.77;1.10;;;27.40;51.70;;;;;;4116405;28;20390;-53
2022/11/19 07:30:34;;;;;;;2.08;1.05;;;27.40;51.80;;;;;;4125511;28;20507;-53
2022/11/19 07:32:57;;;;;;;2.72;1.10;;;27.40;51.90;;;;;;4128380;28;20037;-53
2022/11/19 07:35:19;;;;;;;2.08;1.00;;;27.30;51.90;;;;;;4127772;28;20140;-55
2022/11/19 07:37:42;;;;;;;1.60;0.93;;;27.30;52.00;;;;;;4126920;28;20473;-55
2022/11/19 07:40:06;;;;;;;2.20;0.90;;;27.30;52.00;;;;;;4129791;28;20042;-57
2022/11/19 07:45:09;;;;;;;4.10;1.05;;;27.20;52.20;;;;;;4123761;28;19910;-55
2022/11/19 07:47:33;;;;;;;2.22;1.08;;;27.20;52.10;;;;;;4125143;28;20152;-57
2022/11/19 07:49:56;;;;;;;2.08;1.20;;;27.20;52.30;;;;;;4126163;28;20033;-55
2022/11/19 07:52:18;;;;;;;3.97;1.15;;;27.10;52.30;;;;;;4128232;28;20053;-53
2022/11/19 07:54:41;;;;;;;2.90;1.08;;;27.10;52.40;;;;;;4110326;28;20982;-55
2022/11/19 07:57:03;;;;;;;2.75;1.45;;;27.10;52.40;;;;;;4126228;28;20077;-55
2022/11/19 07:59:26;;;;;;;3.50;1.50;;;27.00;52.50;;;;;;4129029;28;20352;-54
2022/11/19 08:01:48;;;;;;;2.60;0.90;;;27.00;52.60;;;;;;4116647;28;20042;-55
2022/11/19 08:04:11;;;;;;;2.90;1.15;;;27.00;52.60;;;;;;4128941;28;20125;-53
2022/11/19 08:06:34;;;;;;;3.25;1.27;;;26.90;52.60;;;;;;4125713;28;20035;-57
2022/11/19 08:08:57;;;;;;;2.40;1.13;;;26.90;52.70;;;;;;4127760;28;20529;-52
2022/11/19 08:11:19;;;;;;;2.17;0.98;;;26.90;52.60;;;;;;4125287;28;20037;-55
2022/11/19 08:13:51;;;;;;;1.38;0.85;;;26.90;52.70;;;;;;4129717;28;20056;-53
2022/11/19 08:18:56;;;;;;;2.28;1.30;;;26.90;52.90;;;;;;4129095;28;20121;-55
2022/11/19 08:21:18;;;;;;;5.00;1.20;;;26.90;52.90;;;;;;4116215;28;20039;-50
2022/11/19 08:23:41;;;;;;;3.30;1.42;;;26.80;52.80;;;;;;4129419;28;20135;-48
2022/11/19 08:26:07;;;;;;;4.10;1.52;;;26.80;52.90;;;;;;4126703;28;20502;-50
2022/11/19 08:28:30;;;;;;;2.65;0.82;;;26.80;52.90;;;;;;4128482;28;20043;-55
2022/11/19 08:30:53;;;;;;;2.00;1.10;;;26.80;53.00;;;;;;4127923;28;20044;-55
2022/11/19 08:33:16;;;;;;;3.90;1.43;;;26.70;53.10;;;;;;4130527;28;20053;-55
2022/11/19 08:35:38;;;;;;;2.42;1.05;;;26.70;53.10;;;;;;4133643;28;20620;-55
2022/11/19 08:38:01;;;;;;;2.88;1.10;;;26.70;53.10;;;;;;4133921;28;20030;-54
2022/11/19 08:40:24;;;;;;;2.17;0.93;;;26.70;53.10;;;;;;4133247;28;20779;-52
2022/11/19 08:42:59;;;;;;;3.08;1.33;;;26.70;53.20;;;;;;4128432;28;20038;-54
2022/11/19 08:45:21;;;;;;;9.63;1.55;;;26.70;53.30;;;;;;4131178;28;20053;-55
2022/11/19 08:47:44;;;;;;;3.47;1.50;;;26.70;53.30;;;;;;4130870;28;20048;-56
2022/11/19 08:50:07;;;;;;;3.72;1.33;;;26.70;53.30;;;;;;4128632;28;20430;-56
2022/11/19 08:52:29;;;;;;;2.58;1.13;;;26.60;53.30;;;;;;4132278;28;20037;-56
2022/11/19 08:54:52;;;;;;;2.90;1.38;;;26.60;53.40;;;;;;4111058;28;20052;-56
2022/11/19 08:57:14;;;;;;;2.87;1.67;;;26.60;53.40;;;;;;4131989;28;20736;-54
2022/11/19 08:59:37;;;;;;;2.55;1.27;;;26.60;53.40;;;;;;4132064;28;20037;-56
2022/11/19 09:01:59;;;;;;;3.78;1.42;;;26.50;53.30;;;;;;4129230;28;20100;-55
2022/11/19 09:04:22;;;;;;;3.05;1.52;;;26.50;53.40;;;;;;4133466;28;20044;-55
2022/11/19 09:06:44;;;;;;;3.58;1.80;;;26.60;53.50;;;;;;4134711;28;20407;-55
2022/11/19 09:09:07;;;;;;;3.85;2.03;;;26.50;53.40;;;;;;4130715;28;20435;-52
2022/11/19 09:11:30;;;;;;;3.08;2.00;;;26.50;53.40;;;;;;4131797;28;20296;-55
2022/11/19 09:13:53;;;;;;;5.10;2.47;;;26.50;53.40;;;;;;4130481;28;20609;-56
2022/11/19 09:16:16;;;;;;;5.32;2.70;;;26.50;53.50;;;;;;4129712;28;20279;-54
2022/11/19 09:18:41;;;;;;;3.92;2.38;;;26.40;53.40;;;;;;4118707;28;20436;-56
2022/11/19 09:21:03;;;;;;;5.18;3.25;;;26.50;53.50;;;;;;4133080;28;20052;-53
2022/11/19 09:23:27;;;;;;;4.78;3.33;;;26.40;53.50;;;;;;4132162;28;20052;-56
2022/11/19 09:26:08;;;;;;;6.07;4.53;;;26.40;53.50;;;;;;4127446;28;20383;-55
2022/11/19 09:28:31;;;;;;;6.60;4.13;;;26.40;53.50;;;;;;4112515;28;20096;-53
2022/11/19 09:31:02;;;;;;;6.53;4.13;;;26.40;53.50;;;;;;4129966;28;20046;-54
2022/11/19 09:33:25;;;;;;;6.38;4.60;;;26.40;53.60;;;;;;4126577;28;20050;-54
2022/11/19 09:35:48;;;;;;;8.02;5.30;;;26.40;53.60;;;;;;4130977;28;20057;-52
2022/11/19 09:38:10;;;;;;;6.75;5.10;;;26.40;53.60;;;;;;4124271;28;20532;-52
2022/11/19 09:40:33;;;;;;;11.32;8.15;;;26.40;53.60;;;;;;4126501;28;20600;-55
2022/11/19 09:43:13;;;;;;;11.80;10.05;;;26.40;53.70;;;;;;4118245;28;20074;-52
2022/11/19 09:45:43;;;;;;;13.73;12.13;;;26.30;53.60;;;;;;4125959;28;20055;-55
2022/11/19 09:48:33;;;;;;;15.73;13.25;;;26.30;53.70;;;;;;4124054;28;20343;-54
2022/11/19 09:51:03;;;;;;;18.27;15.18;;;26.30;53.70;;;;;;4122842;28;20044;-55
2022/11/19 09:53:33;;;;;;;18.13;15.23;;;26.30;53.70;;;;;;4128858;28;20049;-52
2022/11/19 09:55:58;;;;;;;21.10;18.83;;;26.30;53.80;;;;;;4120685;28;20128;-52
2022/11/19 09:58:26;;;;;;;19.10;17.08;;;26.30;53.80;;;;;;4124853;28;20049;-53
2022/11/19 10:00:48;;;;;;;24.23;21.70;;;26.30;53.80;;;;;;4127369;28;20048;-55
2022/11/19 10:03:14;;;;;;;27.73;24.83;;;26.20;53.70;;;;;;4129773;28;20053;-50
2022/11/19 10:05:50;;;;;;;29.75;26.65;;;26.20;53.70;;;;;;4125756;28;20042;-53
2022/11/19 10:08:33;;;;;;;31.35;28.05;;;26.20;53.80;;;;;;4127214;28;20041;-52
2022/11/19 10:11:13;;;;;;;35.75;32.05;;;26.20;53.80;;;;;;4125753;28;20586;-56
2022/11/19 10:13:51;;;;;;;40.63;36.40;;;26.20;53.90;;;;;;4122123;28;20451;-55
2022/11/19 10:16:45;;;;;;;42.67;38.17;;;26.20;53.90;;;;;;4119713;28;20045;-53
2022/11/19 10:19:31;;;;;;;49.85;44.72;;;26.20;54.60;;;;;;4125487;28;20515;-53
2022/11/19 10:22:02;;;;;;;51.38;46.00;;;26.20;53.90;;;;;;4123662;28;20057;-54
2022/11/19 10:24:45;;;;;;;55.03;49.22;;;26.20;53.90;;;;;;4126907;28;20050;-52
2022/11/19 10:27:25;;;;;;;56.38;50.28;;;26.20;53.90;;;;;;4129929;28;20046;-53
2022/11/19 10:29:52;;;;;;;65.25;58.20;;;26.20;54.00;;;;;;4130296;28;20034;-50
2022/11/19 10:32:37;;;;;;;65.68;58.63;;;26.20;54.00;;;;;;4130900;28;20145;-48
2022/11/19 10:35:02;;;;;;;;;;;26.10;53.90;;;;;;4130613;28;20045;-52
2022/11/19 10:37:30;;;;;;;65.13;58.22;;;26.10;53.90;;;;;;4127365;28;19909;-50
2022/11/19 10:40:16;;;;;;;65.75;58.58;;;26.10;53.90;;;;;;4131683;28;20136;-55
2022/11/19 10:42:43;;;;;;;62.47;55.78;;;26.10;54.00;;;;;;4130772;28;20042;-57
2022/11/19 10:45:18;;;;;;;61.10;54.50;;;26.10;54.00;;;;;;4130125;28;20459;-52
2022/11/19 10:48:08;;;;;;;62.10;55.35;;;26.10;54.00;;;;;;4129550;28;20499;-53
2022/11/19 10:50:31;;;;;;;60.05;53.75;;;26.10;54.00;;;;;;4129937;28;20038;-52
2022/11/19 10:53:06;;;;;;;62.28;55.50;;;26.10;54.00;;;;;;4130728;28;20430;-54
2022/11/19 10:55:39;;;;;;;59.65;53.35;;;26.10;54.10;;;;;;4131495;28;20057;-55
2022/11/19 10:58:19;;;;;;;63.88;56.45;;;26.00;54.00;;;;;;4123636;28;20132;-54
2022/11/19 11:00:43;;;;;;;65.97;58.40;;;26.00;54.00;;;;;;4126396;28;20136;-52
2022/11/19 11:03:14;;;;;;;58.60;51.97;;;26.00;54.00;;;;;;4127923;28;20042;-50
2022/11/19 11:05:54;;;;;;;59.20;52.78;;;26.00;54.10;;;;;;4124588;28;20154;-55
2022/11/19 11:08:17;;;;;;;57.40;51.20;;;26.00;54.10;;;;;;4127751;28;20479;-52
2022/11/19 11:10:43;;;;;;;57.38;51.22;;;26.00;54.20;;;;;;4126080;28;20053;-51
2022/11/19 11:16:09;;;;;;;48.25;43.10;;;26.00;54.30;;;;;;4127868;28;20100;-52
2022/11/19 11:18:33;;;;;;;45.30;40.60;;;26.00;54.40;;;;;;4127885;28;20116;-52
2022/11/19 11:20:56;;;;;;;42.38;37.78;;;26.00;54.50;;;;;;4127034;28;20493;-54
2022/11/19 11:23:22;;;;;;;39.88;35.05;;;25.90;54.40;;;;;;4129206;28;20046;-53
2022/11/19 11:26:08;;;;;;;35.58;31.58;;;26.00;54.90;;;;;;4128368;28;20467;-55
2022/11/19 11:28:30;;;;;;;32.15;28.40;;;25.90;55.40;;;;;;4127145;28;20069;-51
2022/11/19 11:31:00;;;;;;;31.13;25.63;;;25.90;55.60;;;;;;4130390;28;20050;-49
2022/11/19 11:33:34;;;;;;;29.30;25.25;;;25.90;55.80;;;;;;4127482;28;20127;-48
2022/11/19 11:36:03;;;;;;;23.98;21.45;;;25.90;55.80;;;;;;4127083;28;20069;-50
2022/11/19 11:38:28;;;;;;;25.55;20.77;;;26.00;55.80;;;;;;4129328;28;20053;-53
2022/11/19 11:40:59;;;;;;;22.85;18.88;;;26.00;55.70;;;;;;4128668;28;20055;-56
2022/11/19 11:43:22;;;;;;;20.50;17.98;;;26.00;55.80;;;;;;4128213;28;20731;-51
2022/11/19 11:45:45;;;;;;;19.25;17.13;;;26.00;55.60;;;;;;4129063;28;20034;-54
2022/11/19 11:48:15;;;;;;;19.38;17.30;;;26.00;55.60;;;;;;4128501;28;20084;-52
2022/11/19 11:50:38;;;;;;;18.30;15.50;;;26.00;55.60;;;;;;4126354;28;20112;-53
2022/11/19 11:53:08;;;;;;;17.38;14.32;;;26.00;55.70;;;;;;4127011;28;20583;-50
2022/11/19 11:55:32;;;;;;;19.52;13.95;;;26.00;56.00;;;;;;4127857;28;20052;-53
2022/11/19 11:58:05;;;;;;;15.98;13.77;;;26.00;55.70;;;;;;4127342;28;20332;-54
2022/11/19 12:00:31;;;;;;;14.40;12.57;;;26.00;55.60;;;;;;4128506;28;20041;-53
2022/11/19 12:03:12;;;;;;;15.05;11.75;;;26.00;55.60;;;;;;4128437;28;20375;-55
2022/11/19 12:05:54;;;;;;;14.80;11.95;;;26.00;55.60;;;;;;4127348;28;20408;-51
2022/11/19 12:08:30;;;;;;;15.10;11.65;;;26.00;55.60;;;;;;4131123;28;20483;-58
2022/11/19 12:11:16;;;;;;;13.40;11.25;;;26.00;55.70;;;;;;4131106;28;20116;-57
2022/11/19 12:14:11;;;;;;;13.48;10.18;;;26.00;55.60;;;;;;4131973;28;20050;-54
2022/11/19 12:16:52;;;;;;;12.60;10.45;;;26.00;55.80;;;;;;4131957;28;20034;-55
2022/11/19 12:19:32;;;;;;;12.85;9.85;;;26.00;55.80;;;;;;4128424;28;20033;-50
2022/11/19 12:22:21;;;;;;;13.13;10.20;;;26.10;55.80;;;;;;4131359;28;20066;-48
2022/11/19 12:25:17;;;;;;;14.48;9.57;;;26.10;55.90;;;;;;4119195;28;20062;-53
2022/11/19 12:27:58;;;;;;;14.70;7.93;;;26.10;55.80;;;;;;4118428;28;20038;-52
2022/11/19 12:30:24;;;;;;;12.50;8.43;;;26.10;55.80;;;;;;4131868;28;21613;-50
2022/11/19 12:33:12;;;;;;;13.35;8.18;;;26.10;55.70;;;;;;4130370;28;20482;-48
2022/11/19 12:36:27;;;;;;;10.38;7.88;;;26.10;55.70;;;;;;4124693;28;20050;-51
2022/11/19 12:39:06;;;;;;;11.63;7.35;;;26.20;55.70;;;;;;4087069;28;20491;-53
2022/11/19 12:42:10;;;;;;;10.50;7.53;;;26.20;55.70;;;;;;4129044;28;20131;-52
2022/11/19 12:44:48;;;;;;;8.90;7.00;;;26.20;55.60;;;;;;4132806;28;20053;-53
2022/11/19 12:47:33;;;;;;;9.68;6.72;;;26.20;55.60;;;;;;4126874;28;20034;-49
2022/11/19 12:50:28;;;;;;;7.88;6.30;;;26.20;55.50;;;;;;4132798;28;20053;-51
2022/11/19 12:53:05;;;;;;;7.18;6.13;;;26.20;55.50;;;;;;4127985;28;20440;-51
2022/11/19 12:55:38;;;;;;;8.95;6.10;;;26.20;55.50;;;;;;4132667;28;20088;-58
2022/11/19 12:58:09;;;;;;;9.75;5.13;;;26.20;55.50;;;;;;4115660;28;20088;-56
2022/11/19 13:00:35;;;;;;;9.43;5.43;;;26.20;55.30;;;;;;4130876;28;20084;-54
2022/11/19 13:03:13;;;;;;;14.95;5.53;;;26.30;55.40;;;;;;4129353;28;20466;-53
2022/11/19 13:05:54;;;;;;;13.25;4.93;;;26.30;55.40;;;;;;4129393;28;20428;-53